Time;durP1;ratioP1;P1;durP2;ratioP2;P2;SDS_P1;SDS_P2;PMS_P1;PMS_P2;Temp;Humidity;BMP_temperature;BMP_pressure;BME280_temperature;BME280_humidity;BME280_pressure;Samples;Min_cycle;Max_cycle;Signal;HPM_P1;HPM_P2
2024/04/03 00:00:27;;;;;;;4.55;0.80;;;;;;;;;;5047263;28;20056;-72
2024/04/03 00:02:53;;;;;;;3.55;1.13;;;;;;;;;;5024679;28;20029;-72
2024/04/03 00:05:19;;;;;;;4.10;0.75;;;;;;;;;;5045283;28;20032;-72
2024/04/03 00:07:45;;;;;;;6.53;1.63;;;;;;;;;;5044213;28;20115;-71
2024/04/03 00:10:11;;;;;;;5.80;1.30;;;;;;;;;;5035142;28;20065;-72
2024/04/03 00:12:37;;;;;;;4.95;1.02;;;;;;;;;;5015746;28;20276;-72
2024/04/03 00:15:03;;;;;;;5.25;1.23;;;;;;;;;;5033228;28;20026;-73
2024/04/03 00:17:29;;;;;;;6.60;1.45;;;;;;;;;;5034217;28;20387;-72
2024/04/03 00:19:55;;;;;;;1.90;0.80;;;;;;;;;;5016071;28;20021;-72
2024/04/03 00:22:21;;;;;;;8.30;1.98;;;;;;;;;;5034389;28;20022;-73
2024/04/03 00:24:47;;;;;;;3.53;1.27;;;;;;;;;;5037302;28;20017;-73
2024/04/03 00:27:13;;;;;;;5.13;1.20;;;;;;;;;;5037922;28;20021;-72
2024/04/03 00:29:39;;;;;;;3.90;1.13;;;;;;;;;;5019288;28;20467;-72
2024/04/03 00:32:05;;;;;;;3.80;0.88;;;;;;;;;;5038107;28;20033;-72
2024/04/03 00:34:32;;;;;;;3.65;0.85;;;;;;;;;;5022278;28;20025;-72
2024/04/03 00:36:58;;;;;;;2.55;0.65;;;;;;;;;;5022630;28;20047;-73
2024/04/03 00:39:24;;;;;;;8.73;1.15;;;;;;;;;;5040033;28;20037;-72
2024/04/03 00:41:50;;;;;;;6.32;0.90;;;;;;;;;;5037784;28;20032;-72
2024/04/03 00:44:16;;;;;;;6.40;0.73;;;;;;;;;;5037543;28;20029;-73
2024/04/03 00:46:42;;;;;;;4.78;1.33;;;;;;;;;;5037446;28;20034;-71
2024/04/03 00:49:08;;;;;;;2.33;0.90;;;;;;;;;;5038033;28;20060;-71
2024/04/03 00:51:36;;;;;;;9.35;2.65;;;;;;;;;;5018990;28;20033;-71
2024/04/03 00:54:02;;;;;;;5.05;1.10;;;;;;;;;;5017982;28;20028;-72
2024/04/03 00:56:28;;;;;;;5.65;1.40;;;;;;;;;;5035950;28;20029;-72
2024/04/03 00:58:54;;;;;;;3.22;1.02;;;;;;;;;;5018204;28;20026;-71
2024/04/03 01:01:20;;;;;;;5.60;1.38;;;;;;;;;;5036237;28;20027;-71
2024/04/03 01:03:46;;;;;;;7.63;1.58;;;;;;;;;;5037196;28;20037;-71
2024/04/03 01:06:12;;;;;;;5.88;1.20;;;;;;;;;;5040393;28;20033;-71
2024/04/03 01:08:38;;;;;;;5.82;1.40;;;;;;;;;;5045547;28;20021;-71
2024/04/03 01:11:04;;;;;;;4.45;1.00;;;;;;;;;;5039194;28;20033;-71
2024/04/03 01:13:30;;;;;;;3.50;1.23;;;;;;;;;;5034697;28;20025;-71
2024/04/03 01:16:01;;;;;;;5.13;0.80;;;;;;;;;;5034474;28;20372;-72
2024/04/03 01:18:27;;;;;;;4.88;1.10;;;;;;;;;;5035099;28;20022;-72
2024/04/03 01:20:53;;;;;;;6.68;1.23;;;;;;;;;;5035480;28;20357;-71
2024/04/03 01:23:20;;;;;;;4.05;1.42;;;;;;;;;;5016689;28;20029;-72
2024/04/03 01:25:46;;;;;;;5.88;1.20;;;;;;;;;;5016802;28;20451;-72
2024/04/03 01:28:12;;;;;;;6.50;1.58;;;;;;;;;;5034276;28;20380;-72
2024/04/03 01:30:38;;;;;;;5.32;1.05;;;;;;;;;;5034341;28;20108;-72
2024/04/03 01:33:07;;;;;;;4.72;0.65;;;;;;;;;;5033881;28;20036;-71
2024/04/03 01:35:33;;;;;;;6.97;1.50;;;;;;;;;;5033968;28;20017;-71
2024/04/03 01:37:59;;;;;;;5.93;0.80;;;;;;;;;;5016328;28;20060;-71
2024/04/03 01:40:25;;;;;;;3.97;1.05;;;;;;;;;;5034346;28;20036;-71
2024/04/03 01:42:51;;;;;;;4.45;1.35;;;;;;;;;;5034165;28;20112;-71
2024/04/03 01:45:17;;;;;;;6.15;1.05;;;;;;;;;;5034250;28;20064;-72
2024/04/03 01:47:44;;;;;;;5.43;1.58;;;;;;;;;;5016242;28;20033;-71
2024/04/03 01:50:11;;;;;;;4.22;1.00;;;;;;;;;;5016614;28;20021;-72
2024/04/03 01:52:37;;;;;;;8.75;1.52;;;;;;;;;;5016003;28;20029;-72
2024/04/03 01:55:03;;;;;;;6.95;1.35;;;;;;;;;;5033758;28;20030;-72
2024/04/03 01:57:29;;;;;;;7.30;1.20;;;;;;;;;;5033853;28;20028;-71
2024/04/03 01:59:55;;;;;;;6.40;1.30;;;;;;;;;;5049861;28;20029;-71
2024/04/03 02:02:21;;;;;;;4.68;1.40;;;;;;;;;;5071635;28;20029;-71
2024/04/03 02:04:48;;;;;;;4.57;1.08;;;;;;;;;;5073913;28;20016;-72
2024/04/03 02:07:14;;;;;;;9.00;1.33;;;;;;;;;;5073609;28;20040;-72
2024/04/03 02:09:40;;;;;;;5.95;0.90;;;;;;;;;;5073845;28;20399;-71
2024/04/03 02:12:06;;;;;;;8.82;1.38;;;;;;;;;;5055243;28;20046;-72
2024/04/03 02:14:32;;;;;;;7.00;1.60;;;;;;;;;;5073442;28;20044;-72
2024/04/03 02:16:58;;;;;;;4.88;1.65;;;;;;;;;;5055374;28;20031;-71
2024/04/03 02:19:24;;;;;;;5.13;1.17;;;;;;;;;;5073032;28;20032;-71
2024/04/03 02:21:50;;;;;;;8.07;1.60;;;;;;;;;;5072855;28;20098;-72
2024/04/03 02:24:16;;;;;;;9.07;2.15;;;;;;;;;;5073073;28;20028;-72
2024/04/03 02:26:42;;;;;;;6.85;1.63;;;;;;;;;;5073395;28;20082;-72
2024/04/03 02:29:09;;;;;;;5.45;1.45;;;;;;;;;;5055328;28;20426;-72
2024/04/03 02:31:35;;;;;;;7.72;2.08;;;;;;;;;;5055066;28;20429;-72
2024/04/03 02:34:01;;;;;;;5.13;1.35;;;;;;;;;;5055495;28;20422;-72
2024/04/03 02:36:27;;;;;;;4.60;1.38;;;;;;;;;;5073852;28;20021;-72
2024/04/03 02:38:53;;;;;;;5.78;1.23;;;;;;;;;;5074758;28;20020;-72
2024/04/03 02:41:19;;;;;;;2.95;1.20;;;;;;;;;;5056330;28;20381;-72
2024/04/03 02:43:45;;;;;;;5.60;1.58;;;;;;;;;;5074831;28;20033;-72
2024/04/03 02:46:11;;;;;;;5.13;1.23;;;;;;;;;;5074004;28;20029;-72
2024/04/03 02:48:37;;;;;;;8.93;2.13;;;;;;;;;;5076655;28;20024;-72
2024/04/03 02:51:12;;;;;;;3.95;1.02;;;;;;;;;;5077645;28;20020;-73
2024/04/03 02:53:38;;;;;;;8.43;1.40;;;;;;;;;;5057343;28;20032;-72
2024/04/03 02:56:05;;;;;;;4.72;1.35;;;;;;;;;;5057282;28;20376;-72
2024/04/03 02:58:31;;;;;;;10.38;1.50;;;;;;;;;;5073891;28;20021;-71
2024/04/03 03:01:04;;;;;;;9.18;2.22;;;;;;;;;;5072572;28;20021;-71
2024/04/03 03:03:31;;;;;;;8.10;1.80;;;;;;;;;;5072768;28;20474;-71
2024/04/03 03:05:58;;;;;;;7.75;1.50;;;;;;;;;;5072784;28;20025;-72
2024/04/03 03:08:25;;;;;;;3.22;1.23;;;;;;;;;;5074471;28;20108;-72
2024/04/03 03:10:50;;;;;;;5.80;1.25;;;;;;;;;;5074414;28;20467;-71
2024/04/03 03:13:17;;;;;;;7.28;1.25;;;;;;;;;;5072256;28;20043;-72
2024/04/03 03:15:50;;;;;;;7.47;1.30;;;;;;;;;;5072363;28;20012;-72
2024/04/03 03:18:16;;;;;;;7.55;1.25;;;;;;;;;;5072928;28;20031;-72
2024/04/03 03:20:45;;;;;;;6.78;1.45;;;;;;;;;;5075498;28;20025;-72
2024/04/03 03:23:11;;;;;;;5.57;1.10;;;;;;;;;;5055541;28;20028;-72
2024/04/03 03:25:37;;;;;;;10.38;2.40;;;;;;;;;;5072372;28;20027;-73
2024/04/03 03:28:03;;;;;;;4.95;1.50;;;;;;;;;;5054413;28;20433;-72
2024/04/03 03:30:29;;;;;;;5.38;1.40;;;;;;;;;;5054192;28;20473;-72
2024/04/03 03:32:55;;;;;;;8.38;2.03;;;;;;;;;;5072084;28;20028;-71
2024/04/03 03:35:21;;;;;;;11.77;2.90;;;;;;;;;;5072464;28;20021;-71
2024/04/03 03:37:47;;;;;;;7.65;1.95;;;;;;;;;;5072492;28;20028;-72
2024/04/03 03:40:13;;;;;;;11.32;1.75;;;;;;;;;;5056610;28;20036;-72
2024/04/03 03:42:39;;;;;;;8.32;1.85;;;;;;;;;;5056775;28;20032;-72
2024/04/03 03:45:06;;;;;;;6.00;1.98;;;;;;;;;;5072234;28;20044;-72
2024/04/03 03:47:32;;;;;;;2.70;1.27;;;;;;;;;;5054617;28;20467;-71
2024/04/03 03:52:43;;;;;;;8.73;1.20;;;;;;;;;;5072419;28;20094;-72
2024/04/03 03:55:09;;;;;;;6.32;1.17;;;;;;;;;;5073163;28;20021;-71
2024/04/03 03:57:35;;;;;;;10.35;2.20;;;;;;;;;;5074418;28;20016;-72
2024/04/03 04:00:01;;;;;;;4.85;1.95;;;;;;;;;;5076656;28;20105;-72
2024/04/03 04:02:27;;;;;;;10.05;1.70;;;;;;;;;;5077889;28;20031;-72
2024/04/03 04:04:53;;;;;;;3.58;1.17;;;;;;;;;;5079470;28;20494;-71
2024/04/03 04:07:20;;;;;;;6.63;1.45;;;;;;;;;;5067861;28;20024;-71
2024/04/03 04:09:49;;;;;;;5.18;1.58;;;;;;;;;;5084297;28;20029;-71
2024/04/03 04:12:16;;;;;;;6.90;1.95;;;;;;;;;;5078416;28;20590;-72
2024/04/03 04:14:42;;;;;;;6.85;1.35;;;;;;;;;;5078358;28;20020;-72
2024/04/03 04:17:08;;;;;;;6.28;1.60;;;;;;;;;;5078418;28;20017;-72
2024/04/03 04:19:34;;;;;;;7.13;1.77;;;;;;;;;;5062069;28;20058;-72
2024/04/03 04:22:00;;;;;;;9.48;1.90;;;;;;;;;;5081245;28;20360;-72
2024/04/03 04:24:26;;;;;;;8.73;1.92;;;;;;;;;;5062244;28;20024;-72
2024/04/03 04:26:59;;;;;;;7.95;2.13;;;;;;;;;;5077979;28;20020;-72
2024/04/03 04:29:25;;;;;;;4.65;1.38;;;;;;;;;;5058591;28;20025;-72
2024/04/03 04:31:51;;;;;;;5.70;1.33;;;;;;;;;;5058127;28;20025;-72
2024/04/03 04:34:17;;;;;;;8.95;1.30;;;;;;;;;;5075797;28;20094;-72
2024/04/03 04:36:43;;;;;;;4.45;1.15;;;;;;;;;;5075666;28;20422;-72
2024/04/03 04:39:09;;;;;;;3.97;1.40;;;;;;;;;;5076344;28;20051;-71
2024/04/03 04:41:35;;;;;;;6.18;2.35;;;;;;;;;;5079887;28;20017;-71
2024/04/03 04:44:02;;;;;;;7.25;1.73;;;;;;;;;;5083635;28;20047;-72
2024/04/03 04:46:28;;;;;;;9.90;1.58;;;;;;;;;;5087708;28;20052;-73
2024/04/03 04:48:54;;;;;;;7.53;1.70;;;;;;;;;;5084932;28;20016;-71
2024/04/03 04:51:21;;;;;;;4.63;1.67;;;;;;;;;;5078772;28;20025;-72
2024/04/03 04:53:47;;;;;;;7.95;1.65;;;;;;;;;;5051519;28;20498;-73
2024/04/03 04:56:13;;;;;;;9.05;1.30;;;;;;;;;;5052531;28;20409;-73
2024/04/03 04:58:39;;;;;;;5.00;1.20;;;;;;;;;;5053005;28;20035;-74
2024/04/03 05:01:09;;;;;;;3.60;1.60;;;;;;;;;;5035645;28;20021;-72
2024/04/03 05:03:35;;;;;;;6.07;1.48;;;;;;;;;;5035751;28;20123;-72
2024/04/03 05:06:02;;;;;;;7.85;2.35;;;;;;;;;;5053446;28;20483;-73
2024/04/03 05:08:29;;;;;;;5.90;1.65;;;;;;;;;;5034680;28;20115;-72
2024/04/03 05:10:58;;;;;;;7.07;1.40;;;;;;;;;;5054297;28;20017;-72
2024/04/03 05:13:24;;;;;;;4.95;2.08;;;;;;;;;;5051121;28;20039;-73
2024/04/03 05:15:51;;;;;;;5.72;1.50;;;;;;;;;;5054530;28;20020;-71
2024/04/03 05:18:17;;;;;;;5.20;1.70;;;;;;;;;;5036302;28;20028;-72
2024/04/03 05:20:43;;;;;;;11.20;2.63;;;;;;;;;;5053165;28;20033;-72
2024/04/03 05:23:09;;;;;;;5.53;2.00;;;;;;;;;;5052314;28;20032;-72
2024/04/03 05:25:36;;;;;;;3.83;1.55;;;;;;;;;;5054199;28;20032;-71
2024/04/03 05:28:02;;;;;;;7.00;2.47;;;;;;;;;;5055616;28;20082;-72
2024/04/03 05:30:28;;;;;;;7.43;1.98;;;;;;;;;;5056844;28;20013;-71
2024/04/03 05:32:54;;;;;;;10.80;2.85;;;;;;;;;;5040041;28;20662;-72
2024/04/03 05:35:21;;;;;;;6.00;2.28;;;;;;;;;;5053976;28;20052;-72
2024/04/03 05:37:47;;;;;;;9.82;2.45;;;;;;;;;;5054184;28;20033;-73
2024/04/03 05:40:14;;;;;;;11.38;2.45;;;;;;;;;;5053899;28;20051;-73
2024/04/03 05:42:40;;;;;;;7.88;2.15;;;;;;;;;;5053443;28;20556;-72
2024/04/03 05:45:06;;;;;;;6.07;2.15;;;;;;;;;;5036119;28;20116;-71
2024/04/03 05:47:33;;;;;;;7.90;3.05;;;;;;;;;;5053384;28;20029;-73
2024/04/03 05:50:05;;;;;;;6.45;2.42;;;;;;;;;;5053299;28;20019;-74
2024/04/03 05:52:31;;;;;;;8.88;2.30;;;;;;;;;;5034256;28;20044;-73
2024/04/03 05:54:58;;;;;;;5.63;2.17;;;;;;;;;;5034464;28;20045;-72
2024/04/03 05:57:24;;;;;;;7.00;2.65;;;;;;;;;;5052423;28;20041;-73
2024/04/03 05:59:50;;;;;;;8.40;2.08;;;;;;;;;;5052532;28;20017;-73
2024/04/03 06:02:16;;;;;;;9.45;2.80;;;;;;;;;;5051839;28;20020;-73
2024/04/03 06:04:42;;;;;;;11.18;3.03;;;;;;;;;;5054606;28;20372;-73
2024/04/03 06:07:08;;;;;;;7.65;2.25;;;;;;;;;;5052084;28;20032;-74
2024/04/03 06:09:34;;;;;;;7.45;2.53;;;;;;;;;;5033999;28;20025;-74
2024/04/03 06:12:00;;;;;;;8.63;2.75;;;;;;;;;;5051625;28;20025;-73
2024/04/03 06:14:26;;;;;;;4.72;2.33;;;;;;;;;;5052162;28;20479;-73
2024/04/03 06:16:52;;;;;;;11.20;2.97;;;;;;;;;;5034098;28;20028;-74
2024/04/03 06:19:18;;;;;;;12.52;2.53;;;;;;;;;;5052022;28;20380;-73
2024/04/03 06:21:45;;;;;;;5.70;2.10;;;;;;;;;;5051786;28;20191;-73
2024/04/03 06:24:11;;;;;;;9.52;2.30;;;;;;;;;;5052284;28;20036;-73
2024/04/03 06:26:37;;;;;;;10.77;2.50;;;;;;;;;;5051853;28;20340;-73
2024/04/03 06:29:03;;;;;;;8.55;2.88;;;;;;;;;;5051948;28;20079;-73
2024/04/03 06:31:30;;;;;;;7.20;2.53;;;;;;;;;;5051793;28;20526;-72
2024/04/03 06:33:58;;;;;;;16.02;3.63;;;;;;;;;;5052301;28;20067;-74
2024/04/03 06:36:25;;;;;;;8.68;2.20;;;;;;;;;;5052262;28;20021;-73
2024/04/03 06:38:51;;;;;;;10.07;2.30;;;;;;;;;;5052538;28;20021;-72
2024/04/03 06:41:17;;;;;;;4.82;1.58;;;;;;;;;;5051740;28;20021;-74
2024/04/03 06:43:43;;;;;;;7.53;2.00;;;;;;;;;;5055549;28;20383;-74
2024/04/03 06:46:09;;;;;;;4.82;1.42;;;;;;;;;;5053669;28;20043;-73
2024/04/03 06:48:35;;;;;;;7.82;1.73;;;;;;;;;;5035260;28;20482;-74
2024/04/03 06:51:03;;;;;;;6.40;2.17;;;;;;;;;;5053647;28;20127;-73
2024/04/03 06:53:29;;;;;;;7.05;1.90;;;;;;;;;;5053915;28;20021;-73
2024/04/03 06:56:02;;;;;;;7.35;2.38;;;;;;;;;;5053650;28;20028;-74
2024/04/03 06:58:36;;;;;;;5.93;1.55;;;;;;;;;;5053652;28;20021;-73
2024/04/03 07:01:03;;;;;;;5.63;1.80;;;;;;;;;;5035286;28;20029;-74
2024/04/03 07:03:32;;;;;;;10.73;2.17;;;;;;;;;;5054597;28;20182;-73
2024/04/03 07:05:58;;;;;;;5.03;1.17;;;;;;;;;;5035423;28;20025;-72
2024/04/03 07:08:24;;;;;;;7.20;2.78;;;;;;;;;;5052827;28;20021;-73
2024/04/03 07:10:51;;;;;;;5.80;1.30;;;;;;;;;;5053334;28;20021;-73
2024/04/03 07:13:17;;;;;;;4.10;1.20;;;;;;;;;;5052438;28;20019;-73
2024/04/03 07:15:49;;;;;;;6.05;1.77;;;;;;;;;;5052796;28;20387;-73
2024/04/03 07:18:16;;;;;;;6.38;2.25;;;;;;;;;;5053189;28;20021;-72
2024/04/03 07:20:42;;;;;;;4.82;1.63;;;;;;;;;;5053674;28;20017;-72
2024/04/03 07:23:08;;;;;;;3.55;1.70;;;;;;;;;;5034836;28;20036;-72
2024/04/03 07:25:37;;;;;;;4.70;1.45;;;;;;;;;;5053460;28;20411;-72
2024/04/03 07:28:11;;;;;;;7.70;1.50;;;;;;;;;;5056223;28;20025;-73
2024/04/03 07:30:37;;;;;;;5.30;1.38;;;;;;;;;;5035374;28;20104;-72
2024/04/03 07:33:04;;;;;;;6.32;1.40;;;;;;;;;;5056078;28;20082;-72
2024/04/03 07:35:30;;;;;;;7.35;1.60;;;;;;;;;;5039043;28;20025;-73
2024/04/03 07:37:56;;;;;;;6.38;1.23;;;;;;;;;;5057629;28;20549;-72
2024/04/03 07:40:22;;;;;;;6.57;0.93;;;;;;;;;;5039471;28;20402;-72
2024/04/03 07:42:48;;;;;;;3.67;1.40;;;;;;;;;;5038873;28;20075;-73
2024/04/03 07:45:14;;;;;;;4.35;1.23;;;;;;;;;;5056473;28;20415;-73
2024/04/03 07:47:42;;;;;;;3.85;0.90;;;;;;;;;;5039073;28;20033;-73
2024/04/03 07:50:08;;;;;;;4.32;1.58;;;;;;;;;;5057264;28;20475;-73
2024/04/03 07:52:38;;;;;;;4.10;1.30;;;;;;;;;;5039020;28;20039;-72
2024/04/03 07:55:07;;;;;;;6.03;1.05;;;;;;;;;;5057271;28;20041;-72
2024/04/03 07:57:34;;;;;;;4.53;1.20;;;;;;;;;;5057071;28;20427;-73
2024/04/03 08:00:03;;;;;;;5.15;1.95;;;;;;;;;;5056786;28;20058;-72
2024/04/03 08:02:30;;;;;;;6.88;1.35;;;;;;;;;;5056941;28;20111;-71
2024/04/03 08:04:56;;;;;;;3.15;0.63;;;;;;;;;;5038632;28;20017;-73
2024/04/03 08:07:22;;;;;;;5.97;1.10;;;;;;;;;;5057050;28;20028;-71
2024/04/03 08:09:48;;;;;;;4.28;1.75;;;;;;;;;;5057206;28;20033;-73
2024/04/03 08:12:14;;;;;;;4.60;1.20;;;;;;;;;;5038912;28;20024;-73
2024/04/03 08:14:40;;;;;;;4.53;1.52;;;;;;;;;;5039594;28;20494;-72
2024/04/03 08:17:08;;;;;;;5.88;1.38;;;;;;;;;;5060818;28;20036;-73
2024/04/03 08:19:34;;;;;;;7.10;1.15;;;;;;;;;;5061097;28;20036;-71
2024/04/03 08:22:00;;;;;;;3.13;1.15;;;;;;;;;;5058878;28;20021;-72
2024/04/03 08:24:26;;;;;;;3.88;1.40;;;;;;;;;;5038621;28;20126;-72
2024/04/03 08:26:54;;;;;;;7.60;1.98;;;;;;;;;;5056480;28;20036;-72
2024/04/03 08:29:21;;;;;;;12.52;2.45;;;;;;;;;;5056174;28;20021;-73
2024/04/03 08:31:47;;;;;;;4.22;1.35;;;;;;;;;;5056989;28;20028;-74
2024/04/03 08:34:14;;;;;;;5.60;1.23;;;;;;;;;;5038066;28;20021;-72
2024/04/03 08:36:40;;;;;;;4.63;1.27;;;;;;;;;;5037995;28;20037;-72
2024/04/03 08:39:07;;;;;;;5.45;1.30;;;;;;;;;;5056020;28;20083;-72
2024/04/03 08:41:34;;;;;;;6.38;0.95;;;;;;;;;;5037811;28;20029;-72
2024/04/03 08:44:00;;;;;;;2.90;1.02;;;;;;;;;;5055007;28;20371;-73
2024/04/03 08:46:29;;;;;;;2.55;0.70;;;;;;;;;;5037931;28;20029;-71
2024/04/03 08:48:56;;;;;;;3.75;1.30;;;;;;;;;;5055953;28;20082;-71
2024/04/03 08:51:24;;;;;;;3.35;1.13;;;;;;;;;;5037482;28;20029;-72
2024/04/03 08:53:51;;;;;;;6.85;1.10;;;;;;;;;;5037738;28;20021;-72
2024/04/03 08:56:17;;;;;;;3.20;1.20;;;;;;;;;;5056360;28;20379;-72
2024/04/03 08:58:43;;;;;;;4.18;1.50;;;;;;;;;;5037783;28;20475;-72
2024/04/03 09:01:10;;;;;;;2.92;0.80;;;;;;;;;;5055328;28;20146;-74
2024/04/03 09:03:36;;;;;;;3.95;1.10;;;;;;;;;;5055499;28;20483;-73
2024/04/03 09:06:02;;;;;;;6.53;0.80;;;;;;;;;;5055474;28;20090;-72
2024/04/03 09:08:40;;;;;;;1.65;0.63;;;;;;;;;;5055328;28;20028;-73
2024/04/03 09:11:06;;;;;;;5.20;1.25;;;;;;;;;;5055784;28;20458;-72
2024/04/03 09:13:32;;;;;;;3.47;1.38;;;;;;;;;;5037516;28;20395;-73
2024/04/03 09:15:59;;;;;;;4.10;1.08;;;;;;;;;;5055194;28;20025;-73
2024/04/03 09:18:25;;;;;;;4.10;1.65;;;;;;;;;;5056519;28;20021;-74
2024/04/03 09:20:52;;;;;;;3.60;0.85;;;;;;;;;;5056263;28;20021;-73
2024/04/03 09:23:18;;;;;;;5.15;0.93;;;;;;;;;;5055498;28;20108;-72
2024/04/03 09:25:45;;;;;;;3.38;1.15;;;;;;;;;;5055371;28;20060;-72
2024/04/03 09:28:12;;;;;;;3.63;0.90;;;;;;;;;;5055665;28;20025;-72
2024/04/03 09:30:47;;;;;;;3.05;1.13;;;;;;;;;;5055009;28;20096;-73
2024/04/03 09:33:14;;;;;;;3.67;0.82;;;;;;;;;;5037244;28;20029;-72
2024/04/03 09:35:42;;;;;;;4.15;1.00;;;;;;;;;;5038717;28;20029;-74
2024/04/03 09:38:10;;;;;;;2.90;1.02;;;;;;;;;;5058160;28;20043;-72
2024/04/03 09:40:37;;;;;;;5.03;0.60;;;;;;;;;;5037645;28;20029;-72
2024/04/03 09:43:03;;;;;;;4.35;0.77;;;;;;;;;;5054531;28;20024;-73
2024/04/03 09:45:30;;;;;;;3.25;0.68;;;;;;;;;;5037073;28;20033;-72
2024/04/03 09:47:59;;;;;;;4.32;0.80;;;;;;;;;;5055253;28;20056;-73
2024/04/03 09:50:30;;;;;;;2.80;0.80;;;;;;;;;;5056335;28;20075;-73
2024/04/03 09:52:57;;;;;;;4.95;0.70;;;;;;;;;;5055883;28;20021;-73
2024/04/03 09:55:26;;;;;;;5.40;1.20;;;;;;;;;;5060582;28;20029;-73
2024/04/03 09:57:58;;;;;;;4.47;0.85;;;;;;;;;;5060224;28;20541;-75
2024/04/03 10:00:24;;;;;;;2.75;1.13;;;;;;;;;;5041734;28;20594;-73
2024/04/03 10:02:50;;;;;;;5.72;1.30;;;;;;;;;;5061030;28;20032;-73
2024/04/03 10:05:20;;;;;;;2.83;0.65;;;;;;;;;;5062420;28;20021;-75
2024/04/03 10:08:00;;;;;;;3.47;0.93;;;;;;;;;;5058030;28;20021;-73
2024/04/03 10:10:27;;;;;;;6.45;1.35;;;;;;;;;;5043397;28;20021;-73
2024/04/03 10:12:56;;;;;;;2.42;0.77;;;;;;;;;;5059841;28;20013;-73
2024/04/03 10:15:23;;;;;;;3.30;1.00;;;;;;;;;;5039312;28;20028;-74
2024/04/03 10:17:49;;;;;;;6.72;1.10;;;;;;;;;;5056753;28;20487;-74
2024/04/03 10:20:29;;;;;;;11.25;1.15;;;;;;;;;;5038944;28;20029;-74
2024/04/03 10:22:55;;;;;;;2.60;0.90;;;;;;;;;;5054426;28;20029;-74
2024/04/03 10:25:21;;;;;;;4.30;1.13;;;;;;;;;;5038593;28;20017;-74
2024/04/03 10:27:47;;;;;;;5.13;1.13;;;;;;;;;;5056587;28;20018;-74
2024/04/03 10:30:18;;;;;;;1.90;0.75;;;;;;;;;;5039221;28;20036;-73
2024/04/03 10:32:45;;;;;;;1.92;1.20;;;;;;;;;;5056052;28;20025;-74
2024/04/03 10:35:11;;;;;;;4.47;0.98;;;;;;;;;;5035747;28;20031;-73
2024/04/03 10:37:37;;;;;;;3.92;0.85;;;;;;;;;;5036524;28;20032;-72
2024/04/03 10:40:04;;;;;;;4.85;0.93;;;;;;;;;;5053385;28;20025;-72
2024/04/03 10:42:30;;;;;;;2.63;0.73;;;;;;;;;;5053412;28;20032;-72
2024/04/03 10:44:56;;;;;;;4.05;1.08;;;;;;;;;;5053915;28;20565;-73
2024/04/03 10:47:22;;;;;;;1.67;0.70;;;;;;;;;;5054037;28;20052;-73
2024/04/03 10:49:48;;;;;;;1.30;0.68;;;;;;;;;;5035972;28;20020;-72
2024/04/03 10:52:16;;;;;;;1.20;0.60;;;;;;;;;;5036806;28;20087;-73
2024/04/03 10:54:42;;;;;;;5.55;1.17;;;;;;;;;;5055016;28;20356;-73
2024/04/03 10:57:08;;;;;;;2.83;0.80;;;;;;;;;;5055298;28;20039;-73
2024/04/03 10:59:34;;;;;;;2.13;1.15;;;;;;;;;;5036509;28;20029;-73
2024/04/03 11:02:00;;;;;;;5.35;0.70;;;;;;;;;;5053924;28;20021;-72
2024/04/03 11:04:27;;;;;;;2.20;0.80;;;;;;;;;;5053825;28;20051;-72
2024/04/03 11:06:53;;;;;;;3.03;0.93;;;;;;;;;;5052821;28;20021;-73
2024/04/03 11:09:19;;;;;;;3.50;1.10;;;;;;;;;;5035499;28;20036;-73
2024/04/03 11:11:52;;;;;;;3.47;0.88;;;;;;;;;;5053209;28;20025;-72
2024/04/03 11:14:25;;;;;;;7.13;1.30;;;;;;;;;;5035702;28;20032;-73
2024/04/03 11:16:52;;;;;;;5.55;2.17;;;;;;;;;;5035602;28;20028;-72
2024/04/03 11:19:18;;;;;;;3.38;1.25;;;;;;;;;;5053069;28;20025;-72
2024/04/03 11:21:44;;;;;;;3.78;1.30;;;;;;;;;;5052719;28;20391;-73
2024/04/03 11:24:10;;;;;;;3.42;1.00;;;;;;;;;;5053229;28;20029;-72
2024/04/03 11:26:36;;;;;;;5.07;0.68;;;;;;;;;;5053203;28;20036;-73
2024/04/03 11:29:22;;;;;;;1.95;0.90;;;;;;;;;;5053148;28;20029;-72
2024/04/03 11:31:48;;;;;;;1.63;0.98;;;;;;;;;;5034747;28;20047;-72
2024/04/03 11:34:14;;;;;;;8.30;2.50;;;;;;;;;;5053414;28;20021;-73
2024/04/03 11:36:40;;;;;;;2.60;1.27;;;;;;;;;;5035222;28;20069;-72
2024/04/03 11:39:08;;;;;;;1.98;1.23;;;;;;;;;;5052778;28;20480;-74
2024/04/03 11:41:34;;;;;;;3.78;1.58;;;;;;;;;;5053080;28;20071;-72
2024/04/03 11:44:00;;;;;;;2.55;1.20;;;;;;;;;;5054693;28;20120;-73
2024/04/03 11:46:26;;;;;;;3.67;1.50;;;;;;;;;;5058656;28;20048;-74
2024/04/03 11:48:54;;;;;;;3.83;1.38;;;;;;;;;;5061316;28;20033;-73
2024/04/03 11:51:20;;;;;;;5.45;1.77;;;;;;;;;;5041557;28;20033;-73
2024/04/03 11:53:51;;;;;;;2.42;1.02;;;;;;;;;;5042676;28;20138;-74
2024/04/03 11:56:17;;;;;;;5.43;1.40;;;;;;;;;;5059975;28;20407;-74
2024/04/03 11:58:52;;;;;;;4.75;1.70;;;;;;;;;;5056057;28;20063;-74
2024/04/03 12:01:19;;;;;;;6.13;2.28;;;;;;;;;;5035838;28;20029;-74
2024/04/03 12:03:48;;;;;;;7.85;1.70;;;;;;;;;;5037009;28;20024;-73
2024/04/03 12:06:14;;;;;;;2.67;1.33;;;;;;;;;;5036319;28;20496;-74
2024/04/03 12:08:40;;;;;;;4.63;1.35;;;;;;;;;;5035484;28;20039;-73
2024/04/03 12:11:07;;;;;;;3.70;1.00;;;;;;;;;;5053826;28;20021;-74
2024/04/03 12:13:33;;;;;;;4.82;1.20;;;;;;;;;;5035649;28;20075;-73
2024/04/03 12:16:00;;;;;;;1.98;1.10;;;;;;;;;;5035253;28;20033;-73
2024/04/03 12:18:36;;;;;;;5.20;0.90;;;;;;;;;;5055036;28;20039;-72
2024/04/03 12:21:03;;;;;;;2.88;1.00;;;;;;;;;;5057059;28;20049;-72
2024/04/03 12:23:29;;;;;;;3.08;0.68;;;;;;;;;;5056891;28;20021;-73
2024/04/03 12:25:56;;;;;;;1.98;0.90;;;;;;;;;;5057441;28;20055;-72
2024/04/03 12:28:22;;;;;;;1.63;0.50;;;;;;;;;;5057171;28;20081;-72
2024/04/03 12:30:48;;;;;;;4.18;1.05;;;;;;;;;;5057268;28;20021;-72
2024/04/03 12:33:14;;;;;;;1.08;0.65;;;;;;;;;;5039256;28;20025;-73
2024/04/03 12:35:40;;;;;;;2.10;0.45;;;;;;;;;;5039511;28;20036;-72
2024/04/03 12:38:06;;;;;;;5.88;1.00;;;;;;;;;;5057172;28;20016;-73
2024/04/03 12:40:32;;;;;;;2.92;0.88;;;;;;;;;;5056584;28;20021;-72
2024/04/03 12:42:58;;;;;;;2.35;0.95;;;;;;;;;;5057166;28;20490;-72
2024/04/03 12:45:24;;;;;;;3.53;0.77;;;;;;;;;;5057004;28;20036;-73
2024/04/03 12:47:50;;;;;;;4.07;0.75;;;;;;;;;;5041312;28;20032;-73
2024/04/03 12:50:16;;;;;;;3.88;1.00;;;;;;;;;;5060676;28;20017;-73
2024/04/03 12:52:42;;;;;;;4.13;0.80;;;;;;;;;;5061044;28;20391;-72
2024/04/03 12:55:09;;;;;;;4.75;0.90;;;;;;;;;;5060982;28;20534;-72
2024/04/03 12:57:37;;;;;;;4.15;1.10;;;;;;;;;;5062450;28;20052;-72
2024/04/03 13:00:03;;;;;;;1.73;0.85;;;;;;;;;;5057171;28;20021;-73
2024/04/03 13:02:30;;;;;;;1.80;0.90;;;;;;;;;;5056924;28;20024;-72
2024/04/03 13:04:56;;;;;;;3.42;0.70;;;;;;;;;;5039091;28;20029;-73
2024/04/03 13:07:22;;;;;;;2.08;1.02;;;;;;;;;;5038616;28;20083;-72
2024/04/03 13:09:48;;;;;;;2.47;1.20;;;;;;;;;;5056264;28;20025;-72
2024/04/03 13:12:15;;;;;;;1.67;0.70;;;;;;;;;;5038246;28;20029;-71
2024/04/03 13:14:41;;;;;;;2.83;1.10;;;;;;;;;;5039209;28;20064;-72
2024/04/03 13:17:07;;;;;;;1.73;0.82;;;;;;;;;;5057006;28;20517;-73
2024/04/03 13:19:33;;;;;;;3.08;0.85;;;;;;;;;;5057239;28;20459;-73
2024/04/03 13:21:59;;;;;;;1.98;1.02;;;;;;;;;;5039624;28;20043;-73
2024/04/03 13:24:25;;;;;;;2.60;1.00;;;;;;;;;;5058817;28;20044;-72
2024/04/03 13:26:51;;;;;;;2.33;0.88;;;;;;;;;;5057035;28;20048;-73
2024/04/03 13:29:17;;;;;;;7.70;2.55;;;;;;;;;;5057282;28;20203;-73
2024/04/03 13:31:43;;;;;;;2.97;1.10;;;;;;;;;;5058655;28;20025;-72
2024/04/03 13:34:09;;;;;;;4.15;1.33;;;;;;;;;;5042077;28;20052;-73
2024/04/03 13:36:35;;;;;;;2.67;0.90;;;;;;;;;;5058536;28;20031;-72
2024/04/03 13:39:07;;;;;;;4.88;1.13;;;;;;;;;;5057825;28;20051;-73
2024/04/03 13:41:33;;;;;;;;;;;;;;;;;;5057744;28;20029;-71
2024/04/03 13:43:59;;;;;;;6.60;1.38;;;;;;;;;;5056558;28;19915;-73
2024/04/03 13:46:25;;;;;;;1.92;0.95;;;;;;;;;;5055661;28;20418;-71
2024/04/03 13:48:51;;;;;;;2.22;1.05;;;;;;;;;;5056343;28;20032;-73
2024/04/03 13:51:17;;;;;;;4.10;0.75;;;;;;;;;;5056058;28;20025;-72
2024/04/03 13:53:44;;;;;;;2.72;1.05;;;;;;;;;;5055594;28;20029;-73
2024/04/03 13:56:11;;;;;;;1.40;0.90;;;;;;;;;;5056145;28;20036;-74
2024/04/03 13:58:37;;;;;;;3.17;1.10;;;;;;;;;;5055620;28;20092;-73
2024/04/03 14:01:03;;;;;;;4.88;1.13;;;;;;;;;;5055698;28;20047;-72
2024/04/03 14:03:33;;;;;;;5.18;1.20;;;;;;;;;;5037346;28;20035;-73
2024/04/03 14:06:06;;;;;;;1.52;0.90;;;;;;;;;;5037553;28;20025;-73
2024/04/03 14:08:32;;;;;;;7.03;1.48;;;;;;;;;;5055172;28;20037;-74
2024/04/03 14:10:58;;;;;;;1.10;1.00;;;;;;;;;;5055081;28;20032;-72
2024/04/03 14:13:24;;;;;;;3.83;1.10;;;;;;;;;;5036281;28;20028;-73
2024/04/03 14:15:50;;;;;;;3.40;1.35;;;;;;;;;;5036531;28;20437;-72
2024/04/03 14:18:17;;;;;;;5.05;1.80;;;;;;;;;;5055129;28;20386;-72
2024/04/03 14:20:43;;;;;;;2.33;1.48;;;;;;;;;;5054528;28;20498;-72
2024/04/03 14:23:09;;;;;;;3.53;1.27;;;;;;;;;;5053975;28;20028;-72
2024/04/03 14:25:46;;;;;;;2.13;1.42;;;;;;;;;;5055012;28;20487;-72
2024/04/03 14:28:15;;;;;;;3.75;1.10;;;;;;;;;;5037044;28;20104;-72
2024/04/03 14:30:44;;;;;;;4.38;1.80;;;;;;;;;;5036710;28;20372;-72
2024/04/03 14:33:10;;;;;;;2.67;1.70;;;;;;;;;;5054164;28;20083;-72
2024/04/03 14:35:36;;;;;;;5.43;1.58;;;;;;;;;;5054526;28;20023;-73
2024/04/03 14:38:05;;;;;;;3.38;1.42;;;;;;;;;;5054613;28;20021;-73
2024/04/03 14:40:31;;;;;;;2.05;1.30;;;;;;;;;;5054686;28;20113;-73
2024/04/03 14:42:59;;;;;;;3.50;1.58;;;;;;;;;;5053742;28;20067;-73